Time;durP1;ratioP1;P1;durP2;ratioP2;P2;SDS_P1;SDS_P2;PMS_P1;PMS_P2;Temp;Humidity;BMP_temperature;BMP_pressure;BME280_temperature;BME280_humidity;BME280_pressure;Samples;Min_cycle;Max_cycle;Signal;HPM_P1;HPM_P2
2023/01/10 00:00:45;;;;;;;25.88;2.97;;;4.10;99.90;;;;;;6188248;23;20008;-81
2023/01/10 00:03:11;;;;;;;19.60;2.92;;;3.90;99.90;;;;;;6185706;23;20016;-84
2023/01/10 00:05:40;;;;;;;24.77;3.10;;;3.90;99.90;;;;;;6185899;23;20401;-81
2023/01/10 00:08:07;;;;;;;23.58;3.00;;;4.30;99.90;;;;;;6183505;23;20019;-84
2023/01/10 00:10:34;;;;;;;31.67;3.33;;;4.00;99.90;;;;;;6186892;23;20043;-83
2023/01/10 00:15:44;;;;;;;19.52;3.00;;;4.10;99.90;;;;;;6209513;23;20021;-83
2023/01/10 00:18:10;;;;;;;19.83;3.20;;;3.70;99.90;;;;;;6182999;23;20063;-81
2023/01/10 00:20:36;;;;;;;18.95;3.33;;;3.70;99.90;;;;;;6211482;23;20016;-83
2023/01/10 00:23:02;;;;;;;26.30;3.53;;;4.10;99.90;;;;;;6185373;23;20520;-84
2023/01/10 00:25:28;;;;;;;26.73;2.97;;;3.70;99.90;;;;;;6210117;23;20020;-81
2023/01/10 00:28:03;;;;;;;27.52;3.45;;;3.80;99.90;;;;;;6211102;23;20051;-84
2023/01/10 00:30:29;;;;;;;31.48;3.85;;;4.10;99.90;;;;;;6192580;23;20012;-80
2023/01/10 00:32:55;;;;;;;27.42;3.60;;;4.30;99.90;;;;;;6182528;23;20008;-82
2023/01/10 00:35:21;;;;;;;29.63;3.47;;;4.20;99.90;;;;;;6185400;23;20027;-84
2023/01/10 00:37:47;;;;;;;25.75;3.58;;;4.30;99.90;;;;;;6212448;23;20012;-83
2023/01/10 00:40:13;;;;;;;29.30;3.83;;;4.50;99.90;;;;;;6187105;23;20294;-85
2023/01/10 00:45:25;;;;;;;33.83;3.97;;;4.50;99.90;;;;;;6211914;23;20027;-82
2023/01/10 00:47:51;;;;;;;25.40;3.67;;;4.20;99.90;;;;;;6185874;23;20043;-83
2023/01/10 00:50:17;;;;;;;35.40;4.10;;;4.20;99.90;;;;;;6185877;23;20356;-84
2023/01/10 00:52:43;;;;;;;29.85;3.50;;;4.50;99.90;;;;;;6211957;23;20020;-81
2023/01/10 00:55:09;;;;;;;31.67;3.80;;;4.40;99.90;;;;;;6187837;23;20475;-80
2023/01/10 00:57:34;;;;;;;28.85;3.95;;;4.70;99.90;;;;;;6186975;23;20051;-82
2023/01/10 01:00:00;;;;;;;26.48;3.85;;;4.30;99.90;;;;;;6187230;23;20012;-82
2023/01/10 01:02:26;;;;;;;35.22;4.43;;;4.30;99.90;;;;;;6185890;23;20059;-84
2023/01/10 01:04:51;;;;;;;32.88;3.88;;;4.50;99.90;;;;;;6200669;23;20024;-83
2023/01/10 01:07:17;;;;;;;33.85;4.30;;;4.70;99.90;;;;;;6211926;23;20087;-83
2023/01/10 01:12:27;;;;;;;29.23;4.22;;;4.70;99.90;;;;;;6212224;23;20016;-82
2023/01/10 01:14:52;;;;;;;31.80;4.35;;;4.80;99.90;;;;;;6186354;23;20340;-84
2023/01/10 01:17:18;;;;;;;31.88;3.97;;;4.80;99.90;;;;;;6186417;23;20451;-82
2023/01/10 01:19:44;;;;;;;34.03;4.15;;;5.20;99.90;;;;;;6187533;23;20066;-84
2023/01/10 01:22:10;;;;;;;33.70;4.38;;;4.90;99.90;;;;;;6189192;23;20021;-81
2023/01/10 01:24:35;;;;;;;30.60;4.47;;;4.90;99.90;;;;;;6212114;23;20023;-85
2023/01/10 01:27:01;;;;;;;38.80;4.05;;;5.10;99.90;;;;;;6185513;23;20009;-82
2023/01/10 01:29:27;;;;;;;29.52;4.07;;;4.70;99.90;;;;;;6211024;23;20083;-84
2023/01/10 01:31:52;;;;;;;35.13;4.32;;;4.90;99.90;;;;;;6211887;23;20027;-82
2023/01/10 01:34:18;;;;;;;24.17;3.97;;;4.90;99.90;;;;;;6186970;23;20452;-83
2023/01/10 01:36:44;;;;;;;28.58;4.13;;;4.50;99.90;;;;;;6188999;23;20048;-82
2023/01/10 01:42:56;;;;;;;28.45;3.97;;;4.90;99.90;;;;;;6213707;23;20014;-82
2023/01/10 01:45:22;;;;;;;29.77;4.13;;;4.60;99.90;;;;;;6187958;23;20401;-80
2023/01/10 01:48:04;;;;;;;27.98;3.63;;;5.10;99.90;;;;;;6212240;23;20012;-84
2023/01/10 01:51:06;;;;;;;40.88;4.22;;;4.50;99.90;;;;;;6187254;23;20012;-82
2023/01/10 01:53:52;;;;;;;27.73;3.50;;;4.40;99.90;;;;;;6043050;23;20085;-81
2023/01/10 01:56:23;;;;;;;29.25;4.10;;;4.30;99.90;;;;;;6068225;23;20473;-83
2023/01/10 01:58:58;;;;;;;28.83;3.95;;;4.40;99.90;;;;;;6091725;23;20026;-82
2023/01/10 02:01:26;;;;;;;25.50;3.72;;;4.90;99.90;;;;;;6092443;23;20057;-79
2023/01/10 02:04:08;;;;;;;32.10;4.65;;;4.60;99.90;;;;;;6042582;23;20157;-82
2023/01/10 02:06:34;;;;;;;25.27;3.50;;;5.00;99.90;;;;;;6044375;23;20025;-80
2023/01/10 02:09:14;;;;;;;36.05;4.28;;;5.10;99.90;;;;;;6043333;23;20567;-80
2023/01/10 02:11:40;;;;;;;32.85;4.15;;;5.00;99.90;;;;;;6044467;23;20038;-80
2023/01/10 02:14:09;;;;;;;29.98;3.67;;;5.00;99.90;;;;;;6043236;23;20015;-80
2023/01/10 02:16:34;;;;;;;32.97;4.18;;;4.70;99.90;;;;;;6068306;23;20026;-81
2023/01/10 02:19:00;;;;;;;37.45;4.95;;;4.80;99.90;;;;;;6067916;23;20355;-84
2023/01/10 02:21:55;;;;;;;29.55;3.70;;;4.70;99.90;;;;;;6068703;23;20107;-83
2023/01/10 02:24:58;;;;;;;30.87;3.60;;;5.10;99.90;;;;;;5978029;24;20025;-84
2023/01/10 02:27:47;;;;;;;21.77;3.35;;;5.10;99.90;;;;;;5932293;24;20586;-82
2023/01/10 02:30:22;;;;;;;32.80;3.88;;;4.90;99.90;;;;;;6040458;23;20018;-80
2023/01/10 02:33:13;;;;;;;29.40;4.05;;;5.20;99.90;;;;;;6067297;23;20117;-81
2023/01/10 02:35:59;;;;;;;22.42;3.15;;;4.90;99.90;;;;;;6023921;23;20383;-84
2023/01/10 02:42:06;;;;;;;33.92;3.72;;;5.10;99.90;;;;;;6068331;23;20019;-82
2023/01/10 02:45:04;;;;;;;27.42;3.50;;;5.10;99.90;;;;;;6068205;23;20018;-82
2023/01/10 02:47:38;;;;;;;23.38;3.33;;;4.70;99.90;;;;;;6069308;23;20408;-80
2023/01/10 02:50:40;;;;;;;30.52;3.63;;;5.20;99.90;;;;;;6068573;23;20018;-83
2023/01/10 02:53:22;;;;;;;31.17;4.70;;;4.70;99.90;;;;;;6067972;23;20014;-82
2023/01/10 02:56:11;;;;;;;39.42;4.75;;;4.90;99.90;;;;;;6067546;23;20355;-82
2023/01/10 02:59:14;;;;;;;34.15;3.90;;;4.80;99.90;;;;;;6068146;23;20026;-82
2023/01/10 03:02:10;;;;;;;29.55;4.30;;;5.10;99.90;;;;;;6146754;23;20019;-81
2023/01/10 03:05:13;;;;;;;28.20;4.18;;;5.10;99.90;;;;;;6210812;23;20293;-80
2023/01/10 03:08:04;;;;;;;25.85;4.07;;;4.80;99.90;;;;;;6211423;23;20008;-81
2023/01/10 03:10:55;;;;;;;34.20;4.07;;;4.90;99.90;;;;;;6186217;23;20009;-85
2023/01/10 03:13:40;;;;;;;27.25;3.70;;;5.00;99.90;;;;;;6212982;23;20539;-84
2023/01/10 03:16:09;;;;;;;32.97;4.03;;;5.20;99.90;;;;;;6214126;23;20052;-81
2023/01/10 03:18:44;;;;;;;29.48;4.00;;;5.10;99.90;;;;;;6218234;23;20093;-80
2023/01/10 03:21:11;;;;;;;30.15;3.83;;;5.10;99.90;;;;;;6218186;23;20069;-84
2023/01/10 03:23:39;;;;;;;33.72;3.92;;;5.60;99.90;;;;;;6193358;23;20083;-83
2023/01/10 03:26:08;;;;;;;25.27;4.05;;;5.30;99.90;;;;;;6218597;23;20067;-83
2023/01/10 03:28:49;;;;;;;26.17;3.85;;;5.10;99.90;;;;;;6218386;23;20012;-83
2023/01/10 03:31:30;;;;;;;32.47;4.15;;;5.60;99.90;;;;;;6193108;23;20012;-82
2023/01/10 03:33:56;;;;;;;29.50;4.07;;;5.30;99.90;;;;;;6218053;23;20073;-83
2023/01/10 03:36:41;;;;;;;28.13;3.88;;;5.50;99.90;;;;;;6217810;23;20031;-84
2023/01/10 03:39:17;;;;;;;32.13;4.28;;;5.70;99.90;;;;;;6218064;23;20111;-83
2023/01/10 03:42:09;;;;;;;23.98;3.63;;;5.40;99.90;;;;;;6169032;23;20036;-79
2023/01/10 03:44:50;;;;;;;25.90;4.13;;;5.50;99.90;;;;;;6171268;23;20016;-83
2023/01/10 03:47:19;;;;;;;30.35;3.70;;;5.70;99.90;;;;;;6193564;23;20100;-80
2023/01/10 03:49:48;;;;;;;33.70;3.83;;;5.60;99.90;;;;;;6192880;23;20015;-83
2023/01/10 03:52:16;;;;;;;27.30;3.72;;;5.80;99.90;;;;;;6192780;23;20411;-79
2023/01/10 03:54:43;;;;;;;32.10;4.13;;;5.30;99.90;;;;;;6218134;23;20439;-82
2023/01/10 03:57:19;;;;;;;29.80;3.72;;;5.50;99.90;;;;;;6193251;23;20019;-80
2023/01/10 03:59:46;;;;;;;34.58;4.53;;;5.60;99.90;;;;;;6191592;23;20012;-81
2023/01/10 04:02:11;;;;;;;22.63;4.03;;;5.40;99.90;;;;;;6218777;23;20439;-81
2023/01/10 04:04:37;;;;;;;31.08;4.03;;;5.70;99.90;;;;;;6217668;23;20070;-83
2023/01/10 04:07:03;;;;;;;37.17;3.67;;;5.80;99.90;;;;;;6192953;23;20154;-83
2023/01/10 04:09:28;;;;;;;32.50;4.65;;;5.50;99.90;;;;;;6192296;23;20008;-81
2023/01/10 04:11:54;;;;;;;32.63;4.18;;;5.20;99.90;;;;;;6217327;23;20058;-85
2023/01/10 04:14:20;;;;;;;26.70;4.00;;;5.30;99.90;;;;;;6218895;23;20011;-83
2023/01/10 04:16:45;;;;;;;32.88;4.70;;;5.10;99.90;;;;;;6187948;23;20086;-83
2023/01/10 04:19:11;;;;;;;21.70;3.50;;;5.50;99.90;;;;;;6187973;23;20471;-82
2023/01/10 04:21:36;;;;;;;29.45;3.90;;;5.50;99.90;;;;;;6187906;23;20012;-85
2023/01/10 04:24:02;;;;;;;36.25;4.78;;;5.20;99.90;;;;;;6187771;23;20348;-85
2023/01/10 04:26:28;;;;;;;35.88;3.97;;;5.50;99.90;;;;;;6188784;23;20013;-84
2023/01/10 04:28:54;;;;;;;29.30;3.95;;;5.10;99.90;;;;;;6188374;23;20305;-83
2023/01/10 04:31:21;;;;;;;38.03;4.00;;;5.10;99.90;;;;;;6187679;23;20086;-84
2023/01/10 04:33:46;;;;;;;29.40;4.43;;;4.90;99.90;;;;;;6188162;23;20012;-84
2023/01/10 04:36:12;;;;;;;32.10;4.22;;;5.30;99.90;;;;;;6213231;23;20013;-84
2023/01/10 04:38:38;;;;;;;28.40;3.95;;;5.00;99.90;;;;;;6212832;23;20012;-82
2023/01/10 04:41:03;;;;;;;30.38;3.72;;;5.30;99.90;;;;;;6212403;23;20394;-85
2023/01/10 04:43:29;;;;;;;31.83;4.30;;;5.30;99.90;;;;;;6187988;23;20306;-84
2023/01/10 04:45:55;;;;;;;31.52;3.78;;;4.90;99.90;;;;;;6187359;23;20087;-86
2023/01/10 04:48:21;;;;;;;31.27;3.95;;;4.80;99.90;;;;;;6213546;23;20039;-84
2023/01/10 04:50:50;;;;;;;33.53;3.60;;;5.30;99.90;;;;;;6187288;23;20093;-85
2023/01/10 04:53:16;;;;;;;28.98;3.88;;;5.00;99.90;;;;;;6212913;23;20009;-86
2023/01/10 04:55:42;;;;;;;29.15;4.32;;;5.40;99.90;;;;;;6187072;23;20444;-82
2023/01/10 04:58:08;;;;;;;33.28;3.85;;;5.10;99.90;;;;;;6212649;23;20530;-81
2023/01/10 05:00:33;;;;;;;31.05;4.65;;;5.00;99.90;;;;;;6188977;23;20023;-85
2023/01/10 05:02:59;;;;;;;34.75;4.47;;;5.10;99.90;;;;;;6212900;23;20024;-84
2023/01/10 05:05:25;;;;;;;29.45;4.10;;;5.60;99.90;;;;;;6212189;23;20016;-85
2023/01/10 05:07:50;;;;;;;38.08;4.22;;;5.40;99.90;;;;;;6212673;23;20012;-86
2023/01/10 05:10:34;;;;;;;39.30;4.38;;;5.50;99.90;;;;;;6185664;23;20063;-81
2023/01/10 05:13:00;;;;;;;31.02;4.07;;;5.40;99.90;;;;;;6212473;23;20082;-81
2023/01/10 05:15:26;;;;;;;28.83;3.92;;;5.40;99.90;;;;;;6187883;23;20012;-86
2023/01/10 05:17:58;;;;;;;28.83;3.67;;;5.20;99.90;;;;;;6191179;23;20027;-82
2023/01/10 05:20:23;;;;;;;29.00;3.97;;;5.20;99.90;;;;;;6212398;23;20013;-83
2023/01/10 05:22:49;;;;;;;32.53;3.90;;;5.20;99.90;;;;;;6187008;23;20051;-82
2023/01/10 05:25:15;;;;;;;27.20;3.60;;;5.20;99.90;;;;;;6212794;23;20016;-83
2023/01/10 05:27:44;;;;;;;28.02;3.70;;;5.50;99.90;;;;;;6211112;23;20463;-82
2023/01/10 05:30:11;;;;;;;25.20;3.35;;;5.80;99.90;;;;;;6186905;23;20012;-80
2023/01/10 05:32:37;;;;;;;31.85;3.90;;;5.60;99.90;;;;;;6186882;23;20385;-85
2023/01/10 05:35:04;;;;;;;29.38;3.35;;;5.20;99.90;;;;;;6211795;23;20345;-81
2023/01/10 05:37:29;;;;;;;30.55;3.80;;;5.30;99.90;;;;;;6186370;23;20017;-84
2023/01/10 05:40:13;;;;;;;24.98;3.50;;;5.20;99.90;;;;;;6186597;23;20028;-83
2023/01/10 05:42:40;;;;;;;23.25;3.38;;;5.70;99.90;;;;;;6211901;23;20336;-82
2023/01/10 05:45:06;;;;;;;29.15;4.07;;;5.60;99.90;;;;;;6211233;23;20013;-81
2023/01/10 05:47:31;;;;;;;23.40;3.42;;;5.30;99.90;;;;;;6187411;23;20009;-82
2023/01/10 05:49:57;;;;;;;22.85;3.22;;;5.80;99.90;;;;;;6161895;23;20087;-84
2023/01/10 05:52:23;;;;;;;26.83;3.90;;;5.50;99.90;;;;;;6186566;23;20054;-82
2023/01/10 05:54:48;;;;;;;24.45;3.30;;;5.80;99.90;;;;;;6186993;23;20340;-85
2023/01/10 05:57:14;;;;;;;22.60;3.13;;;5.40;99.90;;;;;;6212381;23;20027;-82
2023/01/10 05:59:40;;;;;;;22.67;3.67;;;5.40;99.90;;;;;;6186497;23;20015;-83
2023/01/10 06:02:06;;;;;;;19.98;3.35;;;5.40;99.90;;;;;;6185247;23;20386;-85
2023/01/10 06:04:34;;;;;;;22.63;3.40;;;5.70;99.90;;;;;;6186718;23;20032;-85
2023/01/10 06:07:00;;;;;;;23.20;3.22;;;5.70;99.90;;;;;;6185236;23;20065;-84
2023/01/10 06:09:29;;;;;;;23.25;2.78;;;5.80;99.90;;;;;;6210944;23;20051;-83
2023/01/10 06:11:55;;;;;;;27.88;3.35;;;5.10;99.90;;;;;;6185870;23;20044;-84
2023/01/10 06:14:21;;;;;;;28.45;2.75;;;5.50;99.90;;;;;;6187515;23;20012;-84
2023/01/10 06:16:47;;;;;;;24.40;2.83;;;5.40;99.90;;;;;;6185405;23;20017;-83
2023/01/10 06:19:13;;;;;;;21.95;3.50;;;5.50;99.90;;;;;;6183960;23;20483;-82
2023/01/10 06:21:38;;;;;;;27.33;2.85;;;5.50;99.90;;;;;;6209122;23;20020;-83
2023/01/10 06:24:05;;;;;;;22.27;3.40;;;5.50;99.90;;;;;;6184102;23;20039;-83
2023/01/10 06:26:30;;;;;;;20.65;3.03;;;5.00;99.90;;;;;;6182625;23;20032;-82
2023/01/10 06:28:58;;;;;;;15.73;3.13;;;5.10;99.90;;;;;;6185247;23;20419;-86
2023/01/10 06:31:24;;;;;;;15.25;2.72;;;5.10;99.90;;;;;;6183751;23;20015;-81
2023/01/10 06:33:50;;;;;;;15.02;2.58;;;5.00;99.90;;;;;;6184692;23;20437;-85
2023/01/10 06:36:16;;;;;;;17.88;3.38;;;5.00;99.90;;;;;;6211431;23;20052;-80
2023/01/10 06:38:42;;;;;;;16.42;2.60;;;5.10;99.90;;;;;;6180491;23;20024;-85
2023/01/10 06:41:14;;;;;;;20.60;2.75;;;4.80;99.90;;;;;;6209189;23;20119;-80
2023/01/10 06:43:40;;;;;;;19.77;3.38;;;4.70;99.90;;;;;;6184129;23;20031;-84
2023/01/10 06:46:08;;;;;;;19.00;3.28;;;5.10;99.90;;;;;;6208629;23;20023;-83
2023/01/10 06:48:35;;;;;;;18.95;3.05;;;4.60;99.90;;;;;;6182524;23;20451;-83
2023/01/10 06:51:02;;;;;;;20.80;3.33;;;4.60;99.90;;;;;;6210951;23;20336;-84
2023/01/10 06:53:28;;;;;;;16.38;2.17;;;4.50;99.90;;;;;;6210929;23;20017;-82
2023/01/10 06:56:12;;;;;;;16.00;2.17;;;4.50;99.90;;;;;;6160564;23;20071;-82
2023/01/10 06:58:38;;;;;;;18.63;2.70;;;4.90;99.90;;;;;;6210636;23;20763;-81
2023/01/10 07:01:12;;;;;;;17.02;2.42;;;4.50;99.90;;;;;;6189561;23;20027;-81
2023/01/10 07:03:39;;;;;;;15.60;3.40;;;4.50;99.90;;;;;;6187689;23;20016;-81
2023/01/10 07:06:09;;;;;;;21.20;3.55;;;4.40;99.90;;;;;;6187146;23;20099;-83
2023/01/10 07:08:47;;;;;;;21.50;3.40;;;4.30;99.90;;;;;;6186349;23;20020;-80
2023/01/10 07:11:33;;;;;;;20.48;3.03;;;4.40;99.90;;;;;;6213757;23;20044;-84
2023/01/10 07:14:00;;;;;;;18.45;3.30;;;4.50;99.90;;;;;;6188697;23;20324;-83
2023/01/10 07:16:26;;;;;;;19.05;3.15;;;4.60;99.90;;;;;;6217192;22;20031;-84
2023/01/10 07:18:54;;;;;;;22.38;3.40;;;4.70;99.90;;;;;;6192563;23;20018;-84
2023/01/10 07:21:20;;;;;;;29.65;4.22;;;5.10;99.90;;;;;;6170234;23;20012;-81
2023/01/10 07:23:49;;;;;;;29.90;3.90;;;5.20;99.90;;;;;;6194395;23;20027;-80
2023/01/10 07:26:17;;;;;;;28.75;4.07;;;4.90;99.90;;;;;;6194573;23;20019;-81
2023/01/10 07:28:49;;;;;;;36.00;4.47;;;4.80;99.90;;;;;;6194879;23;20099;-81
2023/01/10 07:31:16;;;;;;;26.30;4.05;;;4.90;99.90;;;;;;6194935;23;20019;-82
2023/01/10 07:33:41;;;;;;;35.67;4.75;;;5.40;99.90;;;;;;6216591;23;20016;-85
2023/01/10 07:36:07;;;;;;;29.58;4.45;;;4.80;99.90;;;;;;6191104;23;20029;-81
2023/01/10 07:38:33;;;;;;;30.73;4.95;;;5.10;99.90;;;;;;6214648;23;20023;-84
2023/01/10 07:41:01;;;;;;;34.38;4.97;;;5.40;99.90;;;;;;6191666;23;20053;-85
2023/01/10 07:43:27;;;;;;;37.58;4.93;;;5.00;99.90;;;;;;6243272;23;20332;-84
2023/01/10 07:45:52;;;;;;;38.85;5.18;;;5.60;99.90;;;;;;6242843;23;20042;-83
2023/01/10 07:48:18;;;;;;;34.03;5.28;;;5.40;99.90;;;;;;6190647;23;20013;-84
2023/01/10 07:50:44;;;;;;;30.58;4.88;;;5.20;99.90;;;;;;6193297;23;20468;-86
2023/01/10 07:53:10;;;;;;;39.55;6.22;;;5.00;99.90;;;;;;6194113;23;20019;-84
2023/01/10 07:55:38;;;;;;;26.88;5.40;;;5.10;99.90;;;;;;6194424;23;20016;-83
2023/01/10 07:58:06;;;;;;;41.65;5.72;;;5.20;99.90;;;;;;6194824;23;20078;-83
2023/01/10 08:00:33;;;;;;;42.35;5.47;;;5.60;99.90;;;;;;6192782;23;20016;-85
2023/01/10 08:02:59;;;;;;;40.05;5.75;;;5.60;99.90;;;;;;6205918;23;20012;-82
2023/01/10 08:05:24;;;;;;;42.30;5.45;;;5.60;99.90;;;;;;6193040;22;20382;-84
2023/01/10 08:07:51;;;;;;;40.83;5.28;;;5.60;99.90;;;;;;6217699;23;20775;-82
2023/01/10 08:10:17;;;;;;;44.65;5.78;;;5.60;99.90;;;;;;6218170;23;20015;-83
2023/01/10 08:12:47;;;;;;;42.28;5.57;;;5.20;99.90;;;;;;6218742;23;20020;-86
2023/01/10 08:15:13;;;;;;;46.40;5.65;;;5.50;99.90;;;;;;6217959;23;20034;-86
2023/01/10 08:17:43;;;;;;;39.92;5.75;;;5.30;99.90;;;;;;6246415;23;20435;-85
2023/01/10 08:20:09;;;;;;;40.72;6.15;;;5.30;99.90;;;;;;6196087;23;20020;-83
2023/01/10 08:22:35;;;;;;;44.08;5.90;;;5.20;99.90;;;;;;6200802;23;20095;-81
2023/01/10 08:25:01;;;;;;;51.00;6.57;;;5.30;99.90;;;;;;6203973;23;20059;-81
2023/01/10 08:27:26;;;;;;;44.10;6.68;;;5.60;99.90;;;;;;6253446;23;20082;-82
2023/01/10 08:29:52;;;;;;;37.03;6.18;;;5.10;99.90;;;;;;6199532;23;20305;-85
2023/01/10 08:32:18;;;;;;;52.33;6.18;;;5.40;99.90;;;;;;6241530;23;20364;-81
2023/01/10 08:34:44;;;;;;;38.08;5.97;;;5.00;99.90;;;;;;6192183;23;20462;-79
2023/01/10 08:37:12;;;;;;;56.25;6.43;;;5.50;99.90;;;;;;6216008;23;20024;-80
2023/01/10 08:42:42;;;;;;;58.58;6.78;;;5.20;99.90;;;;;;6246136;23;20022;-78
2023/01/10 08:45:08;;;;;;;49.75;6.30;;;5.10;99.90;;;;;;6215230;23;20024;-80
2023/01/10 08:47:34;;;;;;;54.35;6.55;;;5.60;99.90;;;;;;6215170;23;20043;-85
2023/01/10 08:49:59;;;;;;;63.28;7.45;;;5.20;99.90;;;;;;6188423;23;20031;-78
2023/01/10 08:52:25;;;;;;;42.40;6.53;;;5.60;99.90;;;;;;6189788;23;20482;-81
2023/01/10 08:54:51;;;;;;;47.15;6.63;;;5.50;99.90;;;;;;6215176;23;20013;-77
2023/01/10 08:57:16;;;;;;;43.30;6.55;;;5.30;99.90;;;;;;6189528;23;20012;-84
2023/01/10 08:59:42;;;;;;;44.30;5.63;;;5.30;99.90;;;;;;6192740;23;20047;-84
2023/01/10 09:02:12;;;;;;;47.97;6.47;;;5.70;99.90;;;;;;6214719;23;20012;-81
2023/01/10 09:04:37;;;;;;;49.60;6.45;;;5.40;99.90;;;;;;6216117;23;20114;-79
2023/01/10 09:07:04;;;;;;;40.50;6.03;;;5.70;99.90;;;;;;6215356;23;20043;-85
2023/01/10 09:09:30;;;;;;;54.17;6.45;;;5.80;99.90;;;;;;6190530;23;20008;-82
2023/01/10 09:11:56;;;;;;;48.53;6.00;;;5.60;99.90;;;;;;6192290;23;20012;-83
2023/01/10 09:14:22;;;;;;;47.85;5.22;;;5.70;99.90;;;;;;6217186;23;20050;-80
2023/01/10 09:16:50;;;;;;;50.30;6.05;;;5.80;99.90;;;;;;6185021;23;20016;-83
2023/01/10 09:19:16;;;;;;;43.75;5.88;;;5.80;99.90;;;;;;6210145;23;20020;-80
2023/01/10 09:21:42;;;;;;;41.17;5.65;;;5.60;99.90;;;;;;6186986;23;20091;-81
2023/01/10 09:24:08;;;;;;;35.63;4.93;;;5.70;99.90;;;;;;6185756;23;20051;-82
2023/01/10 09:26:33;;;;;;;43.35;5.90;;;5.90;99.90;;;;;;6187020;23;20415;-82
2023/01/10 09:28:59;;;;;;;37.80;5.25;;;5.80;99.90;;;;;;6184742;23;20477;-83
2023/01/10 09:31:25;;;;;;;34.75;5.45;;;5.50;99.90;;;;;;6209348;23;20016;-81
2023/01/10 09:33:50;;;;;;;42.50;5.38;;;6.00;99.90;;;;;;6186787;23;20047;-82
2023/01/10 09:36:16;;;;;;;44.58;5.47;;;6.00;99.90;;;;;;6209236;23;20016;-84
2023/01/10 09:38:42;;;;;;;35.25;5.22;;;5.70;99.90;;;;;;6210372;23;20012;-84
2023/01/10 09:41:20;;;;;;;35.88;5.28;;;6.20;99.90;;;;;;6186910;23;20035;-84
2023/01/10 09:44:38;;;;;;;32.28;5.45;;;5.90;99.90;;;;;;6187400;23;20103;-84
2023/01/10 09:47:15;;;;;;;37.80;5.47;;;6.00;99.90;;;;;;6044996;23;20441;-81
2023/01/10 09:49:50;;;;;;;40.03;5.20;;;6.10;99.90;;;;;;6046389;23;20018;-79
2023/01/10 09:52:22;;;;;;;;;;;6.20;99.90;;;;;;6048423;23;20574;-79
2023/01/10 09:54:51;;;;;;;26.25;4.40;;;6.40;99.90;;;;;;6097793;23;19931;-82
2023/01/10 09:57:35;;;;;;;31.65;4.63;;;6.20;99.90;;;;;;6046221;23;20018;-79
2023/01/10 10:00:01;;;;;;;33.63;5.32;;;6.40;99.90;;;;;;6069584;23;20058;-82
2023/01/10 10:02:38;;;;;;;39.30;5.75;;;6.10;99.90;;;;;;6072357;23;20045;-81
2023/01/10 10:05:16;;;;;;;37.15;5.45;;;6.20;99.90;;;;;;6071194;23;20037;-83
2023/01/10 10:07:42;;;;;;;47.30;6.05;;;6.50;99.90;;;;;;6049629;23;20015;-79
2023/01/10 10:10:20;;;;;;;39.70;5.63;;;6.70;99.90;;;;;;6051343;23;20011;-85
2023/01/10 10:13:20;;;;;;;38.38;5.70;;;6.40;99.90;;;;;;6044009;23;20355;-80
2023/01/10 10:16:09;;;;;;;44.00;6.00;;;6.50;99.90;;;;;;6046809;23;20025;-84
2023/01/10 10:19:16;;;;;;;54.97;6.63;;;6.80;99.90;;;;;;6047431;23;20462;-83
2023/01/10 10:21:47;;;;;;;39.88;6.47;;;6.50;99.90;;;;;;5947559;23;20028;-82
2023/01/10 10:24:31;;;;;;;35.47;5.72;;;6.80;99.90;;;;;;6073747;23;20038;-78
2023/01/10 10:27:31;;;;;;;32.25;4.85;;;6.90;99.90;;;;;;6074466;23;20498;-82
2023/01/10 10:30:22;;;;;;;39.85;5.40;;;6.80;99.90;;;;;;6072421;23;20375;-80
2023/01/10 10:33:09;;;;;;;30.50;5.20;;;6.40;99.90;;;;;;6070786;23;20015;-79
2023/01/10 10:35:38;;;;;;;39.10;5.53;;;6.80;99.90;;;;;;6070419;23;20014;-82
2023/01/10 10:38:32;;;;;;;32.92;4.90;;;6.80;99.90;;;;;;6069613;23;20101;-79
2023/01/10 10:41:01;;;;;;;32.67;5.65;;;6.50;99.90;;;;;;6065164;23;20050;-82
2023/01/10 10:43:32;;;;;;;38.28;5.88;;;6.50;99.90;;;;;;6069421;23;20018;-78
2023/01/10 10:46:04;;;;;;;41.40;5.25;;;6.70;99.90;;;;;;6067929;23;20142;-80
2023/01/10 10:48:32;;;;;;;36.47;5.05;;;6.40;99.90;;;;;;6068602;23;20018;-84
2023/01/10 10:51:00;;;;;;;41.05;5.60;;;6.80;99.90;;;;;;6069860;23;20010;-84
2023/01/10 10:53:27;;;;;;;37.08;5.07;;;6.80;99.90;;;;;;6069659;23;20069;-80
2023/01/10 10:55:53;;;;;;;33.28;4.93;;;6.80;99.90;;;;;;6069899;23;20431;-83
2023/01/10 10:58:19;;;;;;;37.47;5.35;;;6.60;99.90;;;;;;6201474;23;20017;-84
2023/01/10 11:00:46;;;;;;;32.83;5.20;;;7.00;99.90;;;;;;6187273;23;20013;-83
2023/01/10 11:03:36;;;;;;;37.28;4.93;;;6.90;99.90;;;;;;6189190;23;20013;-84
2023/01/10 11:06:04;;;;;;;38.25;5.38;;;6.70;99.90;;;;;;6188261;23;20013;-81
2023/01/10 11:08:30;;;;;;;32.60;4.57;;;7.00;99.90;;;;;;6213851;23;20047;-84
2023/01/10 11:11:01;;;;;;;33.72;5.32;;;6.80;99.90;;;;;;6189116;23;20008;-84
2023/01/10 11:13:27;;;;;;;42.30;5.95;;;7.20;99.90;;;;;;6212280;23;20047;-80
2023/01/10 11:15:53;;;;;;;37.58;5.60;;;6.90;99.90;;;;;;6212303;23;20040;-83
2023/01/10 11:18:22;;;;;;;34.33;5.53;;;7.30;99.90;;;;;;6161983;23;20748;-81
2023/01/10 11:20:57;;;;;;;44.13;6.68;;;7.10;99.90;;;;;;6187819;23;20080;-80
2023/01/10 11:23:48;;;;;;;44.30;6.78;;;6.90;99.90;;;;;;6185718;23;20436;-82
2023/01/10 11:26:36;;;;;;;42.30;7.32;;;7.00;99.90;;;;;;6211439;23;20040;-87
2023/01/10 11:29:14;;;;;;;38.85;7.30;;;7.10;99.90;;;;;;6211998;23;20016;-81
2023/01/10 11:31:40;;;;;;;52.72;8.50;;;7.30;99.90;;;;;;6186923;23;20013;-85
2023/01/10 11:34:33;;;;;;;35.85;8.48;;;6.90;99.90;;;;;;6212548;23;20084;-84
2023/01/10 11:37:15;;;;;;;45.60;9.45;;;7.10;99.90;;;;;;6187715;23;20054;-82
2023/01/10 11:39:42;;;;;;;40.63;8.60;;;7.00;99.90;;;;;;6211916;23;20016;-83
2023/01/10 11:42:23;;;;;;;44.10;8.80;;;7.10;99.90;;;;;;6215187;23;20624;-80
2023/01/10 11:44:49;;;;;;;45.85;8.50;;;6.90;99.90;;;;;;6211166;23;20016;-78
2023/01/10 11:47:19;;;;;;;47.00;8.82;;;6.90;99.90;;;;;;6185630;23;20023;-81
2023/01/10 11:49:46;;;;;;;35.63;8.95;;;6.90;99.90;;;;;;6186828;23;20013;-84
2023/01/10 11:52:23;;;;;;;52.17;9.98;;;7.30;99.90;;;;;;6185029;23;20066;-82
2023/01/10 11:54:49;;;;;;;38.28;8.38;;;7.20;99.90;;;;;;6210951;23;20028;-83
2023/01/10 11:57:22;;;;;;;40.75;8.73;;;6.90;99.90;;;;;;6212471;23;20013;-83
2023/01/10 11:59:53;;;;;;;42.60;9.43;;;6.90;99.90;;;;;;6186537;23;20349;-83
2023/01/10 12:02:26;;;;;;;40.80;8.65;;;7.10;99.90;;;;;;6210790;23;20474;-80
2023/01/10 12:04:54;;;;;;;42.97;9.75;;;7.00;99.90;;;;;;6187088;23;20048;-83
2023/01/10 12:07:20;;;;;;;41.83;8.88;;;7.00;99.90;;;;;;6185109;23;20013;-81
2023/01/10 12:09:56;;;;;;;37.92;8.63;;;7.10;99.90;;;;;;6186554;23;20096;-79
2023/01/10 12:12:30;;;;;;;37.80;8.10;;;6.80;99.90;;;;;;6185909;23;20052;-79
2023/01/10 12:14:57;;;;;;;40.47;8.55;;;6.80;99.90;;;;;;6187203;23;20455;-79
2023/01/10 12:17:23;;;;;;;38.20;8.35;;;7.20;99.90;;;;;;6185898;23;20027;-82
2023/01/10 12:19:55;;;;;;;31.80;7.30;;;7.00;99.90;;;;;;6187881;23;20017;-85
2023/01/10 12:22:30;;;;;;;38.50;8.07;;;6.80;99.90;;;;;;6186454;23;20019;-85
2023/01/10 12:24:56;;;;;;;;;;;6.70;99.90;;;;;;6213390;23;20019;-80
2023/01/10 12:27:24;;;;;;;41.05;8.20;;;6.90;99.90;;;;;;6184793;23;19999;-81
2023/01/10 12:30:11;;;;;;;33.03;7.35;;;7.00;99.90;;;;;;6190867;23;20024;-82
2023/01/10 12:32:50;;;;;;;35.38;7.40;;;7.00;99.90;;;;;;6211644;23;20020;-79
2023/01/10 12:35:24;;;;;;;41.78;7.97;;;6.90;99.90;;;;;;6213156;23;20012;-79
2023/01/10 12:38:07;;;;;;;36.88;7.53;;;7.00;99.90;;;;;;6187679;23;20031;-81
2023/01/10 12:40:48;;;;;;;27.33;6.70;;;7.10;99.90;;;;;;6187559;23;20013;-80
2023/01/10 12:46:14;;;;;;;39.35;7.90;;;7.00;99.90;;;;;;6212121;23;20440;-81
2023/01/10 12:48:51;;;;;;;38.85;8.02;;;7.10;99.90;;;;;;6216064;23;20013;-82
2023/01/10 12:51:23;;;;;;;50.42;8.55;;;6.80;99.90;;;;;;6187144;23;20091;-84
2023/01/10 12:53:57;;;;;;;39.40;8.40;;;7.00;99.90;;;;;;6186654;23;20459;-85
2023/01/10 12:56:23;;;;;;;41.97;7.88;;;7.10;99.90;;;;;;6187164;23;20027;-81
2023/01/10 12:58:54;;;;;;;38.28;8.02;;;6.90;99.90;;;;;;6184398;23;20020;-83
2023/01/10 13:01:29;;;;;;;32.95;8.00;;;7.00;99.90;;;;;;6209037;23;20016;-82
2023/01/10 13:04:01;;;;;;;44.30;8.60;;;6.90;99.90;;;;;;6185862;23;20086;-81
2023/01/10 13:06:31;;;;;;;40.47;8.15;;;6.70;99.90;;;;;;6211317;23;20028;-82
2023/01/10 13:09:00;;;;;;;41.13;7.78;;;6.70;99.90;;;;;;6211244;23;20019;-84
2023/01/10 13:12:03;;;;;;;42.70;8.18;;;6.80;99.90;;;;;;6186147;23;20016;-82
2023/01/10 13:14:37;;;;;;;41.65;7.32;;;6.70;99.90;;;;;;6187373;23;20019;-79
2023/01/10 13:17:31;;;;;;;32.78;7.10;;;6.80;99.90;;;;;;6187106;23;20021;-84
2023/01/10 13:20:15;;;;;;;40.08;7.20;;;6.60;99.90;;;;;;6170729;23;20020;-82
2023/01/10 13:22:43;;;;;;;42.53;7.50;;;6.80;99.90;;;;;;6187062;23;20289;-84
2023/01/10 13:25:26;;;;;;;32.42;7.07;;;6.70;99.90;;;;;;6211257;23;20507;-83
2023/01/10 13:27:57;;;;;;;43.88;7.30;;;6.70;99.90;;;;;;6187518;23;20385;-79
2023/01/10 13:30:39;;;;;;;40.17;8.07;;;6.70;99.90;;;;;;6185031;23;20099;-83